Time;durP1;ratioP1;P1;durP2;ratioP2;P2;SDS_P1;SDS_P2;PMS_P1;PMS_P2;Temp;Humidity;BMP_temperature;BMP_pressure;BME280_temperature;BME280_humidity;BME280_pressure;Samples;Min_cycle;Max_cycle;Signal;HPM_P1;HPM_P2
2023/05/31 00:01:47;;;;;;;1999.90;999.90;;;12.30;65.90;;;;;;5014658;28;20436;-88
2023/05/31 00:04:13;;;;;;;1999.90;999.90;;;12.30;66.00;;;;;;5026401;28;20040;-88
2023/05/31 00:06:39;;;;;;;1999.90;999.90;;;12.20;66.20;;;;;;5035470;28;20056;-88
2023/05/31 00:09:04;;;;;;;1999.90;999.90;;;12.20;66.00;;;;;;5036716;28;20037;-88
2023/05/31 00:11:30;;;;;;;1999.90;999.90;;;12.20;66.30;;;;;;5036848;28;20038;-88
2023/05/31 00:14:07;;;;;;;1999.90;999.90;;;12.10;66.30;;;;;;5036449;28;20028;-88
2023/05/31 00:16:33;;;;;;;1999.90;999.90;;;12.10;66.30;;;;;;5036751;28;20040;-88
2023/05/31 00:18:59;;;;;;;1999.90;999.90;;;12.10;66.20;;;;;;5038473;28;20037;-86
2023/05/31 00:21:25;;;;;;;1999.90;999.90;;;12.20;66.10;;;;;;5037065;28;20622;-86
2023/05/31 00:23:50;;;;;;;1999.90;999.90;;;12.10;66.10;;;;;;5043892;28;20112;-87
2023/05/31 00:26:16;;;;;;;1999.90;999.90;;;12.10;65.70;;;;;;5044535;28;20087;-87
2023/05/31 00:28:43;;;;;;;1999.90;999.90;;;12.10;65.60;;;;;;5034951;28;20053;-86
2023/05/31 00:31:08;;;;;;;1999.90;999.90;;;12.10;65.70;;;;;;5039859;28;20056;-87
2023/05/31 00:33:34;;;;;;;1999.90;999.90;;;12.00;65.30;;;;;;5037634;28;20483;-88
2023/05/31 00:36:00;;;;;;;1999.90;999.90;;;11.90;65.90;;;;;;5018967;28;20112;-88
2023/05/31 00:38:27;;;;;;;1999.90;999.90;;;12.00;65.60;;;;;;5034177;28;20830;-88
2023/05/31 00:40:53;;;;;;;1999.90;999.90;;;11.90;65.30;;;;;;5019443;28;20122;-88
2023/05/31 00:43:18;;;;;;;1999.90;999.90;;;11.90;65.00;;;;;;5034485;28;20481;-88
2023/05/31 00:45:44;;;;;;;1999.90;999.90;;;11.80;65.10;;;;;;5029733;28;20484;-89
2023/05/31 00:48:10;;;;;;;1999.90;999.90;;;11.80;65.90;;;;;;5025092;28;20044;-89
2023/05/31 00:50:35;;;;;;;1999.90;999.90;;;11.70;65.70;;;;;;5034230;28;20026;-89
2023/05/31 00:53:03;;;;;;;1999.90;999.90;;;11.60;65.30;;;;;;5034363;28;20024;-88
2023/05/31 00:55:29;;;;;;;1999.90;999.90;;;11.60;65.60;;;;;;5034394;28;20455;-89
2023/05/31 00:57:56;;;;;;;1999.90;999.90;;;11.60;64.80;;;;;;5034716;28;20029;-88
2023/05/31 01:00:22;;;;;;;1999.90;999.90;;;11.60;65.10;;;;;;5033029;28;20026;-89
2023/05/31 01:02:50;;;;;;;1999.90;999.90;;;11.60;64.50;;;;;;5038477;28;20396;-88
2023/05/31 01:05:16;;;;;;;1999.90;999.90;;;11.60;64.10;;;;;;5030761;28;20026;-88
2023/05/31 01:07:42;;;;;;;1999.90;999.90;;;11.60;64.30;;;;;;5032261;28;20053;-89
2023/05/31 01:10:08;;;;;;;1999.90;999.90;;;11.60;64.10;;;;;;5034271;28;20118;-88
2023/05/31 01:12:55;;;;;;;1999.90;999.90;;;11.40;64.00;;;;;;5036135;28;20025;-88
2023/05/31 01:15:27;;;;;;;1999.90;999.90;;;11.50;64.10;;;;;;5033653;28;20014;-89
2023/05/31 01:18:09;;;;;;;1999.90;999.90;;;11.40;63.90;;;;;;5029167;28;20040;-88
2023/05/31 01:20:37;;;;;;;1999.90;999.90;;;11.30;64.30;;;;;;5032861;28;20039;-89
2023/05/31 01:23:12;;;;;;;1999.90;999.90;;;11.30;63.60;;;;;;5032475;28;20033;-89
2023/05/31 01:25:58;;;;;;;1999.90;999.90;;;11.30;63.80;;;;;;5034220;28;20547;-87
2023/05/31 01:28:26;;;;;;;1999.90;999.90;;;11.30;63.70;;;;;;5033848;28;20072;-88
2023/05/31 01:30:53;;;;;;;1999.90;999.90;;;11.30;62.90;;;;;;5034065;28;20080;-89
2023/05/31 01:33:20;;;;;;;1999.90;999.90;;;11.30;63.60;;;;;;5037242;28;20029;-89
2023/05/31 01:35:45;;;;;;;1999.90;999.90;;;11.20;63.90;;;;;;5034193;28;20025;-88
2023/05/31 01:38:11;;;;;;;1999.90;999.90;;;11.10;63.80;;;;;;5034488;28;20469;-89
2023/05/31 01:40:38;;;;;;;1999.90;999.90;;;11.00;64.30;;;;;;5027203;28;20056;-88
2023/05/31 01:43:04;;;;;;;1999.90;999.90;;;11.00;63.70;;;;;;5031195;28;20033;-89
2023/05/31 01:45:31;;;;;;;1999.90;999.90;;;11.00;63.50;;;;;;5024310;28;20056;-89
2023/05/31 01:48:16;;;;;;;1999.90;999.90;;;10.90;63.60;;;;;;5036401;28;20044;-89
2023/05/31 01:50:44;;;;;;;1999.90;999.90;;;10.90;63.40;;;;;;5032845;28;20120;-90
2023/05/31 01:53:10;;;;;;;1999.90;999.90;;;10.90;63.40;;;;;;5038061;28;20030;-88
2023/05/31 01:55:36;;;;;;;1999.90;999.90;;;10.90;62.90;;;;;;5034657;28;20683;-88
2023/05/31 01:58:03;;;;;;;1999.90;999.90;;;10.90;63.40;;;;;;5031513;28;20087;-89
2023/05/31 02:00:29;;;;;;;1999.90;999.90;;;10.80;63.40;;;;;;5032410;28;20040;-87
2023/05/31 02:02:55;;;;;;;1999.90;999.90;;;10.80;63.40;;;;;;5064532;28;20045;-89
2023/05/31 02:05:21;;;;;;;1999.90;999.90;;;10.80;62.90;;;;;;5040633;28;20029;-88
2023/05/31 02:07:50;;;;;;;1999.90;999.90;;;10.90;62.10;;;;;;5038511;28;20049;-89
2023/05/31 02:10:16;;;;;;;1999.90;999.90;;;10.90;61.50;;;;;;5034291;28;20066;-87
2023/05/31 02:12:42;;;;;;;1999.90;999.90;;;11.00;60.70;;;;;;5038634;28;20070;-88
2023/05/31 02:15:10;;;;;;;1999.90;999.90;;;11.00;61.10;;;;;;5029727;28;20376;-90
2023/05/31 02:17:40;;;;;;;1999.90;999.90;;;11.00;60.40;;;;;;5039480;28;20392;-88
2023/05/31 02:20:09;;;;;;;1999.90;999.90;;;10.90;60.80;;;;;;5037938;28;20052;-89
2023/05/31 02:22:34;;;;;;;1999.90;999.90;;;10.70;61.10;;;;;;5033993;28;20087;-88
2023/05/31 02:25:00;;;;;;;1999.90;999.90;;;10.70;61.20;;;;;;5014692;28;20124;-89
2023/05/31 02:27:25;;;;;;;1999.90;999.90;;;10.60;61.40;;;;;;5033983;28;20040;-88
2023/05/31 02:29:51;;;;;;;1999.90;999.90;;;10.60;61.20;;;;;;5024525;28;20033;-89
2023/05/31 02:32:17;;;;;;;1999.90;999.90;;;10.60;61.20;;;;;;5036886;28;20052;-88
2023/05/31 02:34:43;;;;;;;1999.90;999.90;;;10.70;61.00;;;;;;5018358;28;20638;-88
2023/05/31 02:37:09;;;;;;;1999.90;999.90;;;10.70;60.10;;;;;;5038672;28;20036;-88
2023/05/31 02:39:34;;;;;;;1999.90;999.90;;;10.70;60.20;;;;;;5033609;28;20041;-89
2023/05/31 02:42:00;;;;;;;1999.90;999.90;;;10.80;59.40;;;;;;5016515;28;20755;-87
2023/05/31 02:44:26;;;;;;;1999.90;999.90;;;10.70;59.80;;;;;;5036488;28;20033;-90
2023/05/31 02:46:51;;;;;;;1999.90;999.90;;;10.60;59.90;;;;;;5035390;28;20071;-89
2023/05/31 02:49:17;;;;;;;1999.90;999.90;;;10.60;59.40;;;;;;5034317;28;20079;-89
2023/05/31 02:51:43;;;;;;;1999.90;999.90;;;10.70;59.40;;;;;;5031668;28;20029;-88
2023/05/31 02:54:08;;;;;;;1999.90;999.90;;;10.60;59.70;;;;;;5034638;28;20084;-89
2023/05/31 02:56:34;;;;;;;1999.90;999.90;;;10.50;59.40;;;;;;5035503;28;20079;-88
2023/05/31 02:59:00;;;;;;;1999.90;999.90;;;10.50;59.70;;;;;;5033825;28;20064;-88
2023/05/31 03:01:25;;;;;;;1999.90;999.90;;;10.50;60.30;;;;;;5027984;28;20033;-89
2023/05/31 03:03:51;;;;;;;1999.90;999.90;;;10.40;59.50;;;;;;5036604;28;20090;-88
2023/05/31 03:06:19;;;;;;;1999.90;999.90;;;10.40;59.80;;;;;;5034407;28;20045;-88
2023/05/31 03:08:45;;;;;;;1999.90;999.90;;;10.40;59.60;;;;;;5032906;28;20389;-90
2023/05/31 03:11:11;;;;;;;1999.90;999.90;;;10.40;59.70;;;;;;5034322;28;20026;-89
2023/05/31 03:13:37;;;;;;;1999.90;999.90;;;10.40;59.70;;;;;;5031194;28;20028;-89
2023/05/31 03:16:03;;;;;;;1999.90;999.90;;;10.30;59.70;;;;;;5024133;28;20040;-89
2023/05/31 03:18:28;;;;;;;1999.90;999.90;;;10.30;60.30;;;;;;5014176;28;20022;-87
2023/05/31 03:20:54;;;;;;;1999.90;999.90;;;10.30;59.40;;;;;;5029100;28;20049;-88
2023/05/31 03:23:20;;;;;;;1999.90;999.90;;;10.30;59.70;;;;;;5027221;28;20064;-88
2023/05/31 03:25:46;;;;;;;1999.90;999.90;;;10.30;59.80;;;;;;5032604;28;20056;-88
2023/05/31 03:28:12;;;;;;;1999.90;999.90;;;10.20;59.90;;;;;;5027940;28;20080;-88
2023/05/31 03:30:37;;;;;;;1999.90;999.90;;;10.20;59.50;;;;;;5029614;28;20032;-90
2023/05/31 03:33:03;;;;;;;1999.90;999.90;;;10.30;58.90;;;;;;5013378;28;20592;-89
2023/05/31 03:35:29;;;;;;;1999.90;999.90;;;10.30;58.50;;;;;;5036790;28;20112;-89
2023/05/31 03:37:55;;;;;;;1999.90;999.90;;;10.30;58.40;;;;;;5032895;28;20713;-89
2023/05/31 03:40:20;;;;;;;1999.90;999.90;;;10.30;58.30;;;;;;5029113;28;20056;-89
2023/05/31 03:42:46;;;;;;;1999.90;999.90;;;10.20;58.90;;;;;;5033121;28;20111;-88
2023/05/31 03:45:12;;;;;;;1999.90;999.90;;;10.20;58.80;;;;;;5027607;28;20049;-89
2023/05/31 03:47:37;;;;;;;1999.90;999.90;;;10.20;59.00;;;;;;5028473;28;20095;-90
2023/05/31 03:50:06;;;;;;;1999.90;999.90;;;10.20;58.90;;;;;;5033458;28;20033;-89
2023/05/31 03:52:32;;;;;;;1999.90;999.90;;;10.10;59.30;;;;;;5029256;28;20036;-89
2023/05/31 03:54:58;;;;;;;1999.90;999.90;;;10.10;59.00;;;;;;5035384;28;20037;-89
2023/05/31 03:57:24;;;;;;;1999.90;999.90;;;10.10;60.60;;;;;;5033197;28;20046;-89
2023/05/31 03:59:50;;;;;;;1999.90;999.90;;;10.20;59.30;;;;;;5034913;28;20108;-90
2023/05/31 04:02:16;;;;;;;1999.90;999.90;;;10.10;59.40;;;;;;5037603;28;20033;-90
2023/05/31 04:04:41;;;;;;;1999.90;999.90;;;10.20;59.30;;;;;;5035341;28;20033;-89
2023/05/31 04:07:07;;;;;;;1999.90;999.90;;;10.20;59.70;;;;;;5038534;28;20090;-89
2023/05/31 04:09:32;;;;;;;1999.90;999.90;;;10.20;59.60;;;;;;5039614;28;20030;-89
2023/05/31 04:11:58;;;;;;;1999.90;999.90;;;10.20;59.30;;;;;;5035131;28;21414;-89
2023/05/31 04:14:24;;;;;;;1999.90;999.90;;;10.20;59.50;;;;;;5025372;28;20037;-89
2023/05/31 04:16:50;;;;;;;1999.90;999.90;;;10.20;59.70;;;;;;5037164;28;20542;-87
2023/05/31 04:19:15;;;;;;;1999.90;999.90;;;10.20;59.70;;;;;;5033237;28;20034;-89
2023/05/31 04:21:41;;;;;;;1999.90;999.90;;;10.20;60.00;;;;;;5041220;28;20627;-88
2023/05/31 04:24:06;;;;;;;1999.90;999.90;;;10.30;59.80;;;;;;5035035;28;20409;-88
2023/05/31 04:26:33;;;;;;;1999.90;999.90;;;10.30;60.00;;;;;;5032547;28;20037;-89
2023/05/31 04:28:59;;;;;;;1999.90;999.90;;;10.20;60.40;;;;;;5053473;28;20116;-90
2023/05/31 04:31:24;;;;;;;1999.90;999.90;;;10.30;60.10;;;;;;5033089;28;20561;-89
2023/05/31 04:33:56;;;;;;;1999.90;999.90;;;10.30;60.30;;;;;;5041883;28;20116;-87
2023/05/31 04:36:25;;;;;;;1999.90;999.90;;;10.40;60.50;;;;;;5035046;28;20044;-90
2023/05/31 04:38:51;;;;;;;1999.90;999.90;;;10.50;60.60;;;;;;5031845;28;20038;-90
2023/05/31 04:41:17;;;;;;;1999.90;999.90;;;10.40;60.40;;;;;;5016833;28;20408;-89
2023/05/31 04:43:42;;;;;;;1999.90;999.90;;;10.50;60.40;;;;;;5031469;28;20079;-88
2023/05/31 04:46:09;;;;;;;1999.90;999.90;;;10.60;60.60;;;;;;5038424;28;20488;-88
2023/05/31 04:48:40;;;;;;;1999.90;999.90;;;10.60;60.60;;;;;;5035993;28;20030;-88
2023/05/31 04:51:05;;;;;;;1999.90;999.90;;;10.70;60.70;;;;;;5031042;28;20519;-88
2023/05/31 04:53:32;;;;;;;1999.90;999.90;;;10.70;60.40;;;;;;5039786;28;20021;-89
2023/05/31 04:56:04;;;;;;;1999.90;999.90;;;10.70;60.90;;;;;;5038462;28;20036;-89
2023/05/31 04:58:30;;;;;;;1999.90;999.90;;;10.70;60.70;;;;;;5036141;28;20030;-88
2023/05/31 05:00:56;;;;;;;1999.90;999.90;;;10.80;60.40;;;;;;5013920;28;20026;-88
2023/05/31 05:03:22;;;;;;;1999.90;999.90;;;10.90;60.60;;;;;;5029216;28;20030;-88
2023/05/31 05:05:50;;;;;;;1999.90;999.90;;;10.90;60.80;;;;;;5035067;28;20060;-89
2023/05/31 05:08:15;;;;;;;1999.90;999.90;;;10.90;60.50;;;;;;5027897;28;20018;-88
2023/05/31 05:10:41;;;;;;;1999.90;999.90;;;11.00;60.40;;;;;;5032282;28;20047;-89
2023/05/31 05:13:07;;;;;;;1999.90;999.90;;;11.20;60.90;;;;;;5030249;28;20036;-88
2023/05/31 05:15:32;;;;;;;1999.90;999.90;;;11.20;60.30;;;;;;5030233;28;20112;-88
2023/05/31 05:17:58;;;;;;;1999.90;999.90;;;11.30;60.80;;;;;;5049475;28;20037;-88
2023/05/31 05:20:23;;;;;;;1999.90;999.90;;;11.30;60.20;;;;;;5036235;28;20059;-87
2023/05/31 05:22:51;;;;;;;1999.90;999.90;;;11.40;59.90;;;;;;5026446;28;20037;-89
2023/05/31 05:25:17;;;;;;;1999.90;999.90;;;11.60;60.50;;;;;;5028655;28;20112;-88
2023/05/31 05:27:43;;;;;;;1999.90;999.90;;;11.50;60.90;;;;;;5035388;28;20090;-87
2023/05/31 05:30:09;;;;;;;1999.90;999.90;;;11.60;59.50;;;;;;5031659;28;20030;-88
2023/05/31 05:32:34;;;;;;;1999.90;999.90;;;11.70;58.90;;;;;;5035088;28;20032;-86
2023/05/31 05:35:00;;;;;;;1999.90;999.90;;;11.80;59.60;;;;;;5015132;28;20033;-86
2023/05/31 05:37:26;;;;;;;1999.90;999.90;;;11.90;59.30;;;;;;5035670;28;20036;-86
2023/05/31 05:39:51;;;;;;;1999.90;999.90;;;12.00;58.50;;;;;;5030106;28;20496;-88
2023/05/31 05:42:17;;;;;;;1999.90;999.90;;;12.00;59.00;;;;;;5026705;28;20116;-87
2023/05/31 05:44:42;;;;;;;1999.90;999.90;;;12.10;59.60;;;;;;5034050;28;20076;-87
2023/05/31 05:47:08;;;;;;;1999.90;999.90;;;12.20;58.50;;;;;;5028652;28;20171;-87
2023/05/31 05:49:34;;;;;;;1999.90;999.90;;;12.30;59.50;;;;;;5023223;28;20493;-86
2023/05/31 05:51:59;;;;;;;1999.90;999.90;;;12.30;58.20;;;;;;5032916;28;20034;-86
2023/05/31 05:54:25;;;;;;;1999.90;999.90;;;12.50;57.50;;;;;;5030422;28;20029;-86
2023/05/31 05:56:50;;;;;;;1999.90;999.90;;;12.50;56.50;;;;;;5040059;28;20431;-86
2023/05/31 05:59:16;;;;;;;1999.90;999.90;;;12.70;57.30;;;;;;5032172;28;20026;-87
2023/05/31 06:01:42;;;;;;;1999.90;999.90;;;12.80;56.20;;;;;;5028462;28;20113;-86
2023/05/31 06:04:07;;;;;;;1999.90;999.90;;;12.90;56.10;;;;;;5035796;28;20056;-87
2023/05/31 06:06:33;;;;;;;1999.90;999.90;;;13.00;56.00;;;;;;5026224;28;20046;-87
2023/05/31 06:08:59;;;;;;;1999.90;999.90;;;13.00;56.10;;;;;;5035231;28;20038;-86
2023/05/31 06:11:25;;;;;;;1999.90;999.90;;;13.10;54.60;;;;;;5043537;28;20113;-90
2023/05/31 06:13:56;;;;;;;1999.90;999.90;;;13.30;55.00;;;;;;5017070;28;20120;-87
2023/05/31 06:16:22;;;;;;;1999.90;999.90;;;13.30;54.80;;;;;;5033560;28;20041;-87
2023/05/31 06:18:47;;;;;;;1999.90;999.90;;;13.50;54.90;;;;;;5034040;28;20674;-87
2023/05/31 06:21:13;;;;;;;1999.90;999.90;;;13.60;55.20;;;;;;5024443;28;20048;-87
2023/05/31 06:23:39;;;;;;;1999.90;999.90;;;13.70;55.30;;;;;;5046104;28;20550;-86
2023/05/31 06:26:04;;;;;;;1999.90;999.90;;;13.90;55.70;;;;;;5032362;28;20057;-87
2023/05/31 06:28:30;;;;;;;1999.90;999.90;;;13.90;54.00;;;;;;5016415;28;20030;-86
2023/05/31 06:30:56;;;;;;;1999.90;999.90;;;13.90;53.70;;;;;;5029533;28;20429;-87
2023/05/31 06:33:22;;;;;;;1999.90;999.90;;;14.10;52.50;;;;;;5032248;28;20074;-88
2023/05/31 06:35:48;;;;;;;1999.90;999.90;;;14.10;51.80;;;;;;5041926;28;20036;-87
2023/05/31 06:38:16;;;;;;;1999.90;999.90;;;14.30;53.30;;;;;;5034202;28;20094;-87
2023/05/31 06:40:43;;;;;;;1999.90;999.90;;;14.30;54.00;;;;;;5035121;28;20029;-87
2023/05/31 06:43:08;;;;;;;1999.90;999.90;;;14.50;54.40;;;;;;5033920;28;20033;-86
2023/05/31 06:45:34;;;;;;;1999.90;999.90;;;14.50;52.40;;;;;;5033969;28;20033;-86
2023/05/31 06:48:00;;;;;;;1999.90;999.90;;;14.60;54.20;;;;;;5033052;28;20039;-85
2023/05/31 06:50:25;;;;;;;1999.90;999.90;;;14.80;53.10;;;;;;5032249;28;20036;-85
2023/05/31 06:52:51;;;;;;;1999.90;999.90;;;14.90;53.20;;;;;;5015713;28;20108;-85
2023/05/31 06:55:17;;;;;;;1999.90;999.90;;;15.00;52.70;;;;;;5041049;28;20488;-85
2023/05/31 06:57:42;;;;;;;1999.90;999.90;;;15.10;52.90;;;;;;5036499;28;20029;-85
2023/05/31 07:00:10;;;;;;;1999.90;999.90;;;15.20;50.80;;;;;;5033242;28;20382;-83
2023/05/31 07:02:36;;;;;;;1999.90;999.90;;;15.20;52.00;;;;;;5033433;28;20404;-85
2023/05/31 07:05:02;;;;;;;1999.90;999.90;;;15.30;51.60;;;;;;5035536;28;20110;-85
2023/05/31 07:07:27;;;;;;;1999.90;999.90;;;15.60;52.00;;;;;;5033518;28;20101;-87
2023/05/31 07:09:53;;;;;;;1999.90;999.90;;;15.70;50.60;;;;;;5031259;28;20058;-85
2023/05/31 07:12:19;;;;;;;1999.90;999.90;;;15.80;51.10;;;;;;5034326;28;20125;-85
2023/05/31 07:14:44;;;;;;;1999.90;999.90;;;15.80;49.80;;;;;;5031941;28;20112;-85
2023/05/31 07:17:10;;;;;;;1999.90;999.90;;;15.80;49.30;;;;;;5034988;28;20083;-85
2023/05/31 07:19:48;;;;;;;1999.90;999.90;;;16.00;50.70;;;;;;5021306;28;20045;-84
2023/05/31 07:22:15;;;;;;;1999.90;999.90;;;16.10;49.60;;;;;;5029171;28;20051;-84
2023/05/31 07:24:42;;;;;;;1999.90;999.90;;;16.20;50.30;;;;;;5032194;28;20041;-84
2023/05/31 07:27:08;;;;;;;1999.90;999.90;;;16.20;49.80;;;;;;5029205;28;20045;-85
2023/05/31 07:29:34;;;;;;;1999.90;999.90;;;16.20;49.50;;;;;;5039008;28;20104;-85
2023/05/31 07:32:00;;;;;;;1999.90;999.90;;;16.30;50.40;;;;;;5043841;28;20048;-84
2023/05/31 07:34:25;;;;;;;1999.90;999.90;;;16.40;50.40;;;;;;5047324;28;20052;-84
2023/05/31 07:36:51;;;;;;;1999.90;999.90;;;16.70;49.70;;;;;;5043583;28;20103;-84
2023/05/31 07:39:17;;;;;;;1999.90;999.90;;;16.80;49.20;;;;;;5036694;28;20112;-84
2023/05/31 07:41:45;;;;;;;1999.90;999.90;;;16.80;49.00;;;;;;5046630;28;20106;-85
2023/05/31 07:44:11;;;;;;;1999.90;999.90;;;16.90;49.10;;;;;;5041150;28;20038;-84
2023/05/31 07:46:36;;;;;;;1999.90;999.90;;;17.00;48.10;;;;;;5038208;28;20499;-85
2023/05/31 07:49:02;;;;;;;1999.90;999.90;;;17.00;48.30;;;;;;5044198;28;20033;-84
2023/05/31 07:51:31;;;;;;;1999.90;999.90;;;17.00;48.60;;;;;;5041724;28;20033;-84
2023/05/31 07:53:57;;;;;;;1999.90;999.90;;;17.20;47.20;;;;;;5045983;28;20025;-83
2023/05/31 07:56:24;;;;;;;1999.90;999.90;;;17.40;46.80;;;;;;5043876;28;20040;-84
2023/05/31 07:58:49;;;;;;;1999.90;999.90;;;17.40;48.80;;;;;;5024522;28;20073;-84
2023/05/31 08:01:15;;;;;;;1999.90;999.90;;;17.40;48.20;;;;;;5046173;28;20034;-83
2023/05/31 08:03:41;;;;;;;1999.90;999.90;;;17.50;48.00;;;;;;5041071;28;20372;-86
2023/05/31 08:06:07;;;;;;;1999.90;999.90;;;17.50;46.90;;;;;;5037880;28;20029;-78
2023/05/31 08:08:33;;;;;;;1999.90;999.90;;;17.70;47.50;;;;;;5049702;28;20515;-84
2023/05/31 08:11:00;;;;;;;1999.90;999.90;;;18.00;49.20;;;;;;5037668;28;20517;-84
2023/05/31 08:13:26;;;;;;;1999.90;999.90;;;18.30;48.00;;;;;;5047500;28;20476;-84
2023/05/31 08:15:52;;;;;;;1999.90;999.90;;;18.40;45.50;;;;;;5043205;28;20546;-84
2023/05/31 08:18:18;;;;;;;1999.90;999.90;;;18.60;45.80;;;;;;5034812;28;20112;-84
2023/05/31 08:20:43;;;;;;;1999.90;999.90;;;18.50;44.90;;;;;;5037362;28;20049;-84
2023/05/31 08:23:17;;;;;;;1999.90;999.90;;;18.60;45.70;;;;;;5018653;28;20514;-84
2023/05/31 08:25:43;;;;;;;1999.90;999.90;;;18.60;44.70;;;;;;5038480;28;20021;-84
2023/05/31 08:28:08;;;;;;;1999.90;999.90;;;18.80;42.50;;;;;;5023909;28;20551;-84
2023/05/31 08:30:34;;;;;;;1999.90;999.90;;;18.80;44.70;;;;;;5036367;28;20042;-85
2023/05/31 08:32:59;;;;;;;1999.90;999.90;;;19.20;44.10;;;;;;5036309;28;20566;-84
2023/05/31 08:35:25;;;;;;;1999.90;999.90;;;19.30;45.20;;;;;;5038414;28;20035;-84
2023/05/31 08:37:51;;;;;;;1999.90;999.90;;;19.60;42.30;;;;;;5038134;28;20037;-85
2023/05/31 08:40:17;;;;;;;1999.90;999.90;;;19.90;43.10;;;;;;5039262;28;20038;-83
2023/05/31 08:43:21;;;;;;;1999.90;999.90;;;20.20;41.90;;;;;;5037964;28;20100;-84
2023/05/31 08:45:50;;;;;;;1999.90;999.90;;;20.20;40.40;;;;;;5032505;28;20049;-84
2023/05/31 08:48:21;;;;;;;1999.90;999.90;;;20.10;41.30;;;;;;5030406;28;20037;-85
2023/05/31 08:50:48;;;;;;;1999.90;999.90;;;19.90;40.50;;;;;;5039427;28;20037;-84
2023/05/31 08:53:16;;;;;;;1999.90;999.90;;;20.10;41.80;;;;;;5042421;28;20030;-83
2023/05/31 08:55:44;;;;;;;1999.90;999.90;;;20.10;40.50;;;;;;5036838;28;20030;-83
2023/05/31 08:58:10;;;;;;;1999.90;999.90;;;20.10;39.60;;;;;;5044990;28;20060;-84
2023/05/31 09:00:36;;;;;;;1999.90;999.90;;;20.40;39.10;;;;;;5037830;28;20583;-85
2023/05/31 09:03:06;;;;;;;1999.90;999.90;;;20.70;39.10;;;;;;5036290;28;20029;-85
2023/05/31 09:05:31;;;;;;;1999.90;999.90;;;20.50;38.90;;;;;;5041205;28;20090;-84
2023/05/31 09:08:01;;;;;;;1999.90;999.90;;;20.90;39.30;;;;;;5040205;28;20700;-83
2023/05/31 09:10:26;;;;;;;1999.90;999.90;;;20.60;37.80;;;;;;5038273;28;20456;-84
2023/05/31 09:12:53;;;;;;;1999.90;999.90;;;20.90;39.70;;;;;;5041005;28;20036;-83
2023/05/31 09:15:23;;;;;;;1999.90;999.90;;;20.70;36.70;;;;;;5035973;28;20080;-83
2023/05/31 09:17:49;;;;;;;1999.90;999.90;;;20.50;36.60;;;;;;5041788;28;20493;-84
2023/05/31 09:20:14;;;;;;;1999.90;999.90;;;20.60;36.40;;;;;;5037790;28;20140;-84
2023/05/31 09:22:40;;;;;;;1999.90;999.90;;;20.40;35.20;;;;;;5041168;28;20514;-83
2023/05/31 09:25:07;;;;;;;1999.90;999.90;;;20.60;35.50;;;;;;5045651;28;20067;-84
2023/05/31 09:27:37;;;;;;;1999.90;999.90;;;20.70;35.50;;;;;;5033523;28;20044;-84
2023/05/31 09:30:11;;;;;;;1999.90;999.90;;;20.80;34.50;;;;;;5038725;28;20026;-84
2023/05/31 09:32:38;;;;;;;1999.90;999.90;;;20.60;34.60;;;;;;5036869;28;20104;-84
2023/05/31 09:35:15;;;;;;;1999.90;999.90;;;21.00;34.50;;;;;;5033504;28;20029;-84
2023/05/31 09:37:44;;;;;;;1999.90;999.90;;;21.10;35.70;;;;;;5030868;28;20033;-83
2023/05/31 09:40:13;;;;;;;1999.90;999.90;;;20.90;36.00;;;;;;5035568;28;20048;-84
2023/05/31 09:42:46;;;;;;;1999.90;999.90;;;21.30;35.50;;;;;;5040677;28;20025;-84
2023/05/31 09:45:11;;;;;;;1999.90;999.90;;;21.40;36.20;;;;;;5039396;28;20017;-84
2023/05/31 09:47:37;;;;;;;1999.90;999.90;;;21.90;35.10;;;;;;5031683;28;20037;-83
2023/05/31 09:50:03;;;;;;;1999.90;999.90;;;21.80;36.00;;;;;;5042682;28;20481;-84
2023/05/31 09:52:33;;;;;;;1999.90;999.90;;;21.50;33.70;;;;;;5038524;28;20634;-84
2023/05/31 09:55:05;;;;;;;1999.90;999.90;;;21.60;33.80;;;;;;5035994;28;20029;-84
2023/05/31 09:57:32;;;;;;;1999.90;999.90;;;21.70;36.40;;;;;;5040570;28;20033;-84
2023/05/31 09:59:59;;;;;;;1999.90;999.90;;;22.10;35.90;;;;;;5032485;28;20036;-84
2023/05/31 10:02:27;;;;;;;1999.90;999.90;;;22.30;33.60;;;;;;5037066;28;20496;-82
2023/05/31 10:04:56;;;;;;;1999.90;999.90;;;22.50;35.50;;;;;;5035547;28;20056;-84
2023/05/31 10:07:23;;;;;;;1999.90;999.90;;;22.50;33.90;;;;;;5033307;28;20117;-84
2023/05/31 10:09:49;;;;;;;1999.90;999.90;;;22.30;33.80;;;;;;5040102;28;20030;-84
2023/05/31 10:12:18;;;;;;;1999.90;999.90;;;22.00;31.10;;;;;;5035630;28;20106;-85
2023/05/31 10:14:49;;;;;;;1999.90;999.90;;;22.20;33.50;;;;;;5034679;28;20488;-84
2023/05/31 10:17:20;;;;;;;1999.90;999.90;;;22.30;32.40;;;;;;5040126;28;20143;-83
2023/05/31 10:19:54;;;;;;;1999.90;999.90;;;22.20;31.40;;;;;;5033120;28;20521;-84
2023/05/31 10:22:20;;;;;;;1999.90;999.90;;;22.40;32.20;;;;;;5041186;28;20113;-85
2023/05/31 10:24:54;;;;;;;1999.90;999.90;;;22.40;31.90;;;;;;5033997;28;20026;-84
2023/05/31 10:27:28;;;;;;;1999.90;999.90;;;22.50;31.40;;;;;;5014878;28;20505;-84
2023/05/31 10:29:56;;;;;;;1999.90;999.90;;;22.20;31.20;;;;;;5040224;28;20331;-84
2023/05/31 10:32:32;;;;;;;1999.90;999.90;;;22.50;31.60;;;;;;5031792;28;20079;-83
2023/05/31 10:34:58;;;;;;;1999.90;999.90;;;22.80;31.30;;;;;;5041833;28;20107;-84
2023/05/31 10:37:24;;;;;;;1999.90;999.90;;;22.70;30.40;;;;;;5039741;28;20038;-85
2023/05/31 10:39:55;;;;;;;1999.90;999.90;;;23.30;33.50;;;;;;5034371;28;20051;-83
2023/05/31 10:42:40;;;;;;;1999.90;999.90;;;23.20;31.80;;;;;;5037583;28;20022;-84
2023/05/31 10:45:40;;;;;;;1999.90;999.90;;;23.00;30.40;;;;;;5032757;28;20422;-84
2023/05/31 10:48:32;;;;;;;1999.90;999.90;;;22.70;28.80;;;;;;5039504;28;20045;-84
2023/05/31 10:51:00;;;;;;;1999.90;999.90;;;22.50;29.20;;;;;;5035505;28;20029;-84
2023/05/31 10:53:37;;;;;;;1999.90;999.90;;;22.80;29.90;;;;;;5038157;28;20184;-83
2023/05/31 10:56:09;;;;;;;1999.90;999.90;;;23.30;29.70;;;;;;5030442;28;20036;-84
2023/05/31 10:58:40;;;;;;;1999.90;999.90;;;23.50;31.00;;;;;;5026260;28;20512;-83
2023/05/31 11:01:09;;;;;;;1999.90;999.90;;;24.40;28.70;;;;;;5039344;28;20155;-84
2023/05/31 11:03:35;;;;;;;1999.90;999.90;;;24.10;28.70;;;;;;5032339;28;20037;-82
2023/05/31 11:06:06;;;;;;;1999.90;999.90;;;24.20;29.40;;;;;;5019996;28;20076;-83
2023/05/31 11:08:32;;;;;;;1999.90;999.90;;;24.70;28.50;;;;;;5031512;28;20030;-82
2023/05/31 11:11:32;;;;;;;1999.90;999.90;;;24.80;27.40;;;;;;5033270;28;20045;-83
2023/05/31 11:14:02;;;;;;;1999.90;999.90;;;24.80;28.50;;;;;;5034738;28;20075;-83
2023/05/31 11:16:32;;;;;;;1999.90;999.90;;;24.60;28.10;;;;;;5020528;28;20083;-83
2023/05/31 11:19:05;;;;;;;1999.90;999.90;;;24.80;27.10;;;;;;5033548;28;20029;-82
2023/05/31 11:21:47;;;;;;;1999.90;999.90;;;25.00;27.50;;;;;;5032611;28;20034;-83
2023/05/31 11:24:52;;;;;;;1999.90;999.90;;;25.20;26.30;;;;;;5030085;28;20151;-83
2023/05/31 11:27:23;;;;;;;1999.90;999.90;;;24.90;27.20;;;;;;5031918;28;20049;-86
2023/05/31 11:29:51;;;;;;;1999.90;999.90;;;24.90;25.90;;;;;;5033828;28;20031;-83
2023/05/31 11:32:25;;;;;;;1999.90;999.90;;;25.60;27.00;;;;;;5039011;28;20029;-83
2023/05/31 11:34:56;;;;;;;1999.90;999.90;;;25.50;25.50;;;;;;5034538;28;20029;-83
2023/05/31 11:37:27;;;;;;;1999.90;999.90;;;26.20;27.30;;;;;;5034480;28;20057;-82
2023/05/31 11:39:57;;;;;;;1999.90;999.90;;;26.20;25.00;;;;;;5037994;28;20412;-84
2023/05/31 11:42:23;;;;;;;1999.90;999.90;;;26.50;25.40;;;;;;5034187;28;20110;-84
2023/05/31 11:44:50;;;;;;;1999.90;999.90;;;26.40;24.20;;;;;;5031836;28;20501;-84
2023/05/31 11:47:25;;;;;;;1999.90;999.90;;;26.70;25.70;;;;;;5034056;28;20029;-83
2023/05/31 11:49:51;;;;;;;1999.90;999.90;;;26.30;25.10;;;;;;5030867;28;20507;-83
2023/05/31 11:52:19;;;;;;;1999.90;999.90;;;26.50;26.00;;;;;;5032778;28;20029;-82
2023/05/31 11:54:47;;;;;;;1999.90;999.90;;;26.80;25.90;;;;;;5026248;28;20037;-82
2023/05/31 11:57:14;;;;;;;1999.90;999.90;;;26.80;23.80;;;;;;5027406;28;20029;-82
2023/05/31 11:59:41;;;;;;;1999.90;999.90;;;27.10;24.80;;;;;;5034030;28;20083;-83
2023/05/31 12:02:08;;;;;;;1999.90;999.90;;;27.00;23.80;;;;;;5034346;28;20029;-83